Terminal Aerodrome Forecast
Issued by NWS Corpus Christi, TX

Home | Current Version | Previous Version | Text Only | Print | Product List | Glossary On
Versions: 1 2 3 4 5 6 7 8 9 10 11 12
000
FTUS44 KCRP 252325
TAFVCT
TAF
KVCT 252325Z 2600/2624 14012KT P6SM VCTS SCT045CB
     FM260300 17004KT P6SM SCT030
     FM261400 VRB03KT P6SM VCTS SCT020CB BKN050
      TEMPO 2616/2620 TSRA OVC020CB=

USA.gov is the U.S. government's official web portal to all federal, state and local government web resources and services.